createdAt,value
2017-10-07T00:00:37.017Z,7.40
2017-10-07T00:01:37.013Z,7.36
2017-10-07T00:02:37.010Z,7.33
2017-10-07T00:03:37.007Z,7.37
2017-10-07T00:04:37.005Z,7.32
2017-10-07T00:05:37.005Z,7.44
2017-10-07T00:06:37.005Z,7.41
2017-10-07T00:07:37.001Z,7.47
2017-10-07T00:08:37.001Z,7.43
2017-10-07T00:09:37.299Z,7.44
2017-10-07T00:10:37.002Z,7.48
2017-10-07T00:11:36.997Z,7.47
2017-10-07T00:12:36.995Z,7.56
2017-10-07T00:13:36.994Z,7.44
2017-10-07T00:14:36.992Z,7.43
2017-10-07T00:15:36.991Z,7.44
2017-10-07T00:16:36.990Z,7.44
2017-10-07T00:17:36.988Z,7.41
2017-10-07T00:18:36.987Z,7.40
2017-10-07T00:19:36.985Z,7.36
2017-10-07T00:20:37.008Z,7.41
2017-10-07T00:21:36.982Z,7.36
2017-10-07T00:22:36.981Z,7.39
2017-10-07T00:23:36.989Z,7.43
2017-10-07T00:24:36.979Z,7.47
2017-10-07T00:25:36.977Z,7.47
2017-10-07T00:26:36.976Z,7.43
2017-10-07T00:27:36.974Z,7.41
2017-10-07T00:28:36.973Z,7.44
2017-10-07T00:29:36.972Z,7.44
2017-10-07T00:30:36.972Z,7.33
2017-10-07T00:31:36.968Z,7.44
2017-10-07T00:32:36.967Z,7.43
2017-10-07T00:33:36.967Z,7.36
2017-10-07T00:34:36.965Z,7.33
2017-10-07T00:35:36.961Z,7.33
2017-10-07T00:36:36.960Z,7.21
2017-10-07T00:37:36.959Z,7.23
2017-10-07T00:38:36.957Z,7.28
2017-10-07T00:39:36.954Z,7.31
2017-10-07T00:40:36.953Z,7.31
2017-10-07T00:41:36.953Z,7.37
2017-10-07T00:42:36.950Z,7.33
2017-10-07T00:43:36.949Z,7.40
2017-10-07T00:44:36.948Z,7.40
2017-10-07T00:45:36.948Z,7.46
2017-10-07T00:46:36.944Z,7.41
2017-10-07T00:47:36.941Z,7.33
2017-10-07T00:48:36.940Z,7.40
2017-10-07T00:49:36.939Z,7.37
2017-10-07T00:50:36.937Z,7.32
2017-10-07T00:51:36.936Z,7.39
2017-10-07T00:52:36.934Z,7.39
2017-10-07T00:53:36.932Z,7.23
2017-10-07T00:54:36.931Z,7.26
2017-10-07T00:55:36.928Z,7.23
2017-10-07T00:56:36.928Z,7.19
2017-10-07T00:57:36.926Z,7.25
2017-10-07T00:58:36.923Z,7.25
2017-10-07T00:59:36.921Z,7.25
2017-10-07T01:00:36.921Z,7.23
2017-10-07T01:01:36.919Z,7.31
2017-10-07T01:02:36.920Z,7.31
2017-10-07T01:03:36.914Z,7.32
2017-10-07T01:04:36.914Z,7.28
2017-10-07T01:05:36.912Z,7.23
2017-10-07T01:06:36.910Z,7.26
2017-10-07T01:07:36.908Z,7.28
2017-10-07T01:08:36.905Z,7.41
2017-10-07T01:09:36.905Z,7.36
2017-10-07T01:10:36.902Z,7.41
2017-10-07T01:11:36.899Z,7.32
2017-10-07T01:12:36.900Z,7.41
2017-10-07T01:13:36.897Z,7.43
2017-10-07T01:14:36.896Z,7.40
2017-10-07T01:15:36.894Z,7.44
2017-10-07T01:16:36.891Z,7.51
2017-10-07T01:17:36.896Z,7.55
2017-10-07T01:18:36.889Z,7.61
2017-10-07T01:19:36.887Z,7.56
2017-10-07T01:20:36.885Z,7.51
2017-10-07T01:21:36.883Z,7.48
2017-10-07T01:22:36.883Z,7.43
2017-10-07T01:23:36.880Z,7.37
2017-10-07T01:24:36.885Z,7.41
2017-10-07T01:25:36.877Z,7.32
2017-10-07T01:26:36.877Z,7.41
2017-10-07T01:27:36.873Z,7.44
2017-10-07T01:28:36.872Z,7.48
2017-10-07T01:29:36.870Z,7.59
2017-10-07T01:30:36.870Z,7.61
2017-10-07T01:31:36.867Z,7.72
2017-10-07T01:32:36.866Z,7.66
2017-10-07T01:33:36.870Z,7.69
2017-10-07T01:34:36.863Z,7.69
2017-10-07T01:35:36.861Z,7.70
2017-10-07T01:36:36.860Z,7.64
2017-10-07T01:37:36.858Z,7.67
2017-10-07T01:38:36.857Z,7.70
2017-10-07T01:39:36.855Z,7.67
2017-10-07T01:40:36.855Z,7.75
2017-10-07T01:41:36.853Z,7.64
2017-10-07T01:42:36.853Z,7.75
2017-10-07T01:43:36.850Z,7.62
2017-10-07T01:44:36.849Z,7.59
2017-10-07T01:45:36.853Z,7.69
2017-10-07T01:46:36.846Z,7.64
2017-10-07T01:47:36.843Z,7.58
2017-10-07T01:48:36.844Z,7.70
2017-10-07T01:49:36.842Z,7.59
2017-10-07T01:50:36.839Z,7.69
2017-10-07T01:51:36.837Z,7.59
2017-10-07T01:52:36.838Z,7.58
2017-10-07T01:53:36.836Z,7.56
2017-10-07T01:54:36.835Z,7.55
2017-10-07T01:55:36.837Z,7.44
2017-10-07T01:56:36.831Z,7.41
2017-10-07T01:57:36.830Z,7.48
2017-10-07T01:58:36.830Z,7.47
2017-10-07T01:59:36.828Z,7.50
2017-10-07T02:00:36.826Z,7.56
2017-10-07T02:01:36.824Z,7.58
2017-10-07T02:02:36.823Z,7.70
2017-10-07T02:03:36.822Z,7.66
2017-10-07T02:04:36.820Z,7.58
2017-10-07T02:05:36.819Z,7.59
2017-10-07T02:06:36.819Z,7.51
2017-10-07T02:07:36.815Z,7.56
2017-10-07T02:08:36.815Z,7.56
2017-10-07T02:09:36.813Z,7.59
2017-10-07T02:10:36.813Z,7.58
2017-10-07T02:11:36.809Z,7.55
2017-10-07T02:12:36.811Z,7.53
2017-10-07T02:13:36.809Z,7.61
2017-10-07T02:14:36.807Z,7.58
2017-10-07T02:15:36.805Z,7.62
2017-10-07T02:16:36.803Z,7.64
2017-10-07T02:17:36.803Z,7.61
2017-10-07T02:18:36.801Z,7.58
2017-10-07T02:19:36.804Z,7.53
2017-10-07T02:20:36.799Z,7.55
2017-10-07T02:21:36.796Z,7.50
2017-10-07T02:22:36.796Z,7.55
2017-10-07T02:23:36.794Z,7.55
2017-10-07T02:24:36.794Z,7.58
2017-10-07T02:25:36.791Z,7.56
2017-10-07T02:26:36.793Z,7.59
2017-10-07T02:27:36.788Z,7.56
2017-10-07T02:28:36.787Z,7.58
2017-10-07T02:29:36.790Z,7.56
2017-10-07T02:30:36.786Z,7.50
2017-10-07T02:31:36.783Z,7.61
2017-10-07T02:32:36.782Z,7.53
2017-10-07T02:33:36.781Z,7.51
2017-10-07T02:34:36.781Z,7.56
2017-10-07T02:35:36.777Z,7.58
2017-10-07T02:36:36.777Z,7.64
2017-10-07T02:37:36.775Z,7.70
2017-10-07T02:38:36.775Z,7.74
2017-10-07T02:39:36.773Z,7.77
2017-10-07T02:40:36.772Z,7.78
2017-10-07T02:41:36.771Z,7.84
2017-10-07T02:42:36.768Z,7.80
2017-10-07T02:43:36.767Z,7.83
2017-10-07T02:44:36.765Z,7.80
2017-10-07T02:45:36.766Z,7.78
2017-10-07T02:46:36.769Z,7.69
2017-10-07T02:47:36.760Z,7.66
2017-10-07T02:48:36.762Z,7.72
2017-10-07T02:49:36.760Z,7.70
2017-10-07T02:50:36.763Z,7.80
2017-10-07T02:51:36.756Z,7.77
2017-10-07T02:52:36.755Z,7.84
2017-10-07T02:53:36.754Z,7.77
2017-10-07T02:54:36.752Z,7.83
2017-10-07T02:55:36.753Z,7.85
2017-10-07T02:56:36.751Z,7.85
2017-10-07T02:57:36.748Z,7.83
2017-10-07T02:58:36.748Z,7.90
2017-10-07T02:59:36.747Z,7.90
2017-10-07T03:00:36.744Z,7.84
2017-10-07T03:01:36.743Z,7.87
2017-10-07T03:02:36.743Z,7.77
2017-10-07T03:03:36.741Z,7.70
2017-10-07T03:04:36.740Z,7.64
2017-10-07T03:05:36.739Z,7.70
2017-10-07T03:06:36.739Z,7.69
2017-10-07T03:07:36.736Z,7.67
2017-10-07T03:08:36.761Z,7.70
2017-10-07T03:09:36.733Z,7.72
2017-10-07T03:10:36.732Z,7.75
2017-10-07T03:11:36.730Z,7.78
2017-10-07T03:12:36.730Z,7.80
2017-10-07T03:13:36.729Z,7.78
2017-10-07T03:14:36.727Z,7.78
2017-10-07T03:15:36.726Z,7.81
2017-10-07T03:16:36.726Z,7.84
2017-10-07T03:17:36.723Z,7.80
2017-10-07T03:18:36.723Z,7.84
2017-10-07T03:19:36.722Z,7.87
2017-10-07T03:20:36.721Z,7.83
2017-10-07T03:21:36.719Z,7.87
2017-10-07T03:22:36.717Z,7.85
2017-10-07T03:23:36.716Z,7.87
2017-10-07T03:24:36.714Z,7.88
2017-10-07T03:25:36.713Z,7.81
2017-10-07T03:26:36.714Z,7.69
2017-10-07T03:27:36.711Z,7.70
2017-10-07T03:28:36.710Z,7.67
2017-10-07T03:29:36.709Z,7.55
2017-10-07T03:30:36.710Z,7.56
2017-10-07T03:31:36.705Z,7.55
2017-10-07T03:32:36.705Z,7.55
2017-10-07T03:33:36.703Z,7.48
2017-10-07T03:34:36.702Z,7.51
2017-10-07T03:35:36.701Z,7.50
2017-10-07T03:36:36.699Z,7.50
2017-10-07T03:37:36.703Z,7.46
2017-10-07T03:38:36.700Z,7.41
2017-10-07T03:39:36.696Z,7.41
2017-10-07T03:40:36.695Z,7.48
2017-10-07T03:41:36.694Z,7.46
2017-10-07T03:42:36.692Z,7.55
2017-10-07T03:43:36.690Z,7.51
2017-10-07T03:44:36.690Z,7.55
2017-10-07T03:45:36.688Z,7.53
2017-10-07T03:46:36.687Z,7.51
2017-10-07T03:47:36.686Z,7.44
2017-10-07T03:48:36.684Z,7.56
2017-10-07T03:49:36.684Z,7.50
2017-10-07T03:50:36.683Z,7.44
2017-10-07T03:51:36.679Z,7.44
2017-10-07T03:52:36.679Z,7.47
2017-10-07T03:53:36.679Z,7.47
2017-10-07T03:54:36.676Z,7.46
2017-10-07T03:55:36.675Z,7.47
2017-10-07T03:56:36.673Z,7.47
2017-10-07T03:57:36.673Z,7.56
2017-10-07T03:58:36.673Z,7.39
2017-10-07T03:59:36.670Z,7.48
2017-10-07T04:00:36.669Z,7.51
2017-10-07T04:01:36.667Z,7.56
2017-10-07T04:02:36.667Z,7.56
2017-10-07T04:03:36.666Z,7.55
2017-10-07T04:04:36.662Z,7.59
2017-10-07T04:05:36.661Z,7.51
2017-10-07T04:06:36.660Z,7.58
2017-10-07T04:07:36.661Z,7.55
2017-10-07T04:08:36.657Z,7.53
2017-10-07T04:09:36.657Z,7.55
2017-10-07T04:10:36.656Z,7.44
2017-10-07T04:11:36.653Z,7.47
2017-10-07T04:12:36.652Z,7.46
2017-10-07T04:13:36.651Z,7.46
2017-10-07T04:14:36.649Z,7.41
2017-10-07T04:15:36.648Z,7.44
2017-10-07T04:16:36.646Z,7.43
2017-10-07T04:17:36.646Z,7.48
2017-10-07T04:18:36.644Z,7.41
2017-10-07T04:19:36.642Z,7.46
2017-10-07T04:20:36.645Z,7.41
2017-10-07T04:21:36.640Z,7.37
2017-10-07T04:22:36.639Z,7.32
2017-10-07T04:23:36.637Z,7.40
2017-10-07T04:24:36.636Z,7.39
2017-10-07T04:25:36.634Z,7.33
2017-10-07T04:26:36.633Z,7.33
2017-10-07T04:27:36.630Z,7.36
2017-10-07T04:28:36.635Z,7.39
2017-10-07T04:29:36.630Z,7.40
2017-10-07T04:30:36.627Z,7.47
2017-10-07T04:31:36.626Z,7.48
2017-10-07T04:32:36.625Z,7.55
2017-10-07T04:33:36.623Z,7.61
2017-10-07T04:34:36.622Z,7.56
2017-10-07T04:35:36.621Z,7.58
2017-10-07T04:36:36.619Z,7.69
2017-10-07T04:37:36.617Z,7.64
2017-10-07T04:38:36.617Z,7.72
2017-10-07T04:39:36.615Z,7.64
2017-10-07T04:40:36.614Z,7.64
2017-10-07T04:41:36.612Z,7.67
2017-10-07T04:42:36.611Z,7.69
2017-10-07T04:43:36.610Z,7.64
2017-10-07T04:44:36.608Z,7.74
2017-10-07T04:45:36.612Z,7.69
2017-10-07T04:46:36.607Z,7.77
2017-10-07T04:47:36.603Z,7.77
2017-10-07T04:48:36.605Z,7.78
2017-10-07T04:49:36.602Z,7.78
2017-10-07T04:50:36.600Z,7.80
2017-10-07T04:51:36.599Z,7.77
2017-10-07T04:52:36.597Z,7.77
2017-10-07T04:53:36.597Z,7.83
2017-10-07T04:54:36.595Z,7.80
2017-10-07T04:55:36.591Z,7.75
2017-10-07T04:56:36.592Z,7.69
2017-10-07T04:57:36.592Z,7.77
2017-10-07T04:58:36.590Z,7.70
2017-10-07T04:59:36.588Z,7.66
2017-10-07T05:00:36.587Z,7.66
2017-10-07T05:01:36.586Z,7.80
2017-10-07T05:02:36.585Z,7.83
2017-10-07T05:03:36.584Z,7.75
2017-10-07T05:04:36.582Z,7.69
2017-10-07T05:05:36.581Z,7.66
2017-10-07T05:06:36.579Z,7.62
2017-10-07T05:07:36.578Z,7.67
2017-10-07T05:08:36.576Z,7.61
2017-10-07T05:09:36.576Z,7.53
2017-10-07T05:10:36.575Z,7.47
2017-10-07T05:11:36.573Z,7.40
2017-10-07T05:12:36.596Z,7.43
2017-10-07T05:13:36.570Z,7.36
2017-10-07T05:14:36.569Z,7.32
2017-10-07T05:15:36.566Z,7.33
2017-10-07T05:16:36.564Z,7.23
2017-10-07T05:17:36.564Z,7.22
2017-10-07T05:18:36.563Z,7.19
2017-10-07T05:19:36.561Z,7.25
2017-10-07T05:20:36.560Z,7.23
2017-10-07T05:21:36.558Z,7.18
2017-10-07T05:22:36.558Z,7.21
2017-10-07T05:23:36.556Z,7.13
2017-10-07T05:24:36.553Z,7.07
2017-10-07T05:25:36.570Z,7.08
2017-10-07T05:26:36.551Z,7.15
2017-10-07T05:27:36.549Z,7.05
2017-10-07T05:28:36.548Z,7.11
2017-10-07T05:29:36.548Z,7.10
2017-10-07T05:30:36.545Z,7.14
2017-10-07T05:31:36.544Z,7.15
2017-10-07T05:32:36.542Z,7.15
2017-10-07T05:33:36.540Z,7.22
2017-10-07T05:34:36.542Z,7.18
2017-10-07T05:35:36.537Z,7.25
2017-10-07T05:36:36.536Z,7.29
2017-10-07T05:37:36.534Z,7.23
2017-10-07T05:38:36.533Z,7.28
2017-10-07T05:39:36.531Z,7.29
2017-10-07T05:40:36.530Z,7.33
2017-10-07T05:41:36.527Z,7.33
2017-10-07T05:42:36.526Z,7.32
2017-10-07T05:43:36.525Z,7.40
2017-10-07T05:44:36.523Z,7.46
2017-10-07T05:45:36.522Z,7.36
2017-10-07T05:46:36.521Z,7.37
2017-10-07T05:47:36.519Z,7.36
2017-10-07T05:48:36.517Z,7.44
2017-10-07T05:49:36.516Z,7.41
2017-10-07T05:50:36.514Z,7.55
2017-10-07T05:51:36.514Z,7.56
2017-10-07T05:52:36.511Z,7.64
2017-10-07T05:53:36.511Z,7.64
2017-10-07T05:54:36.510Z,7.64
2017-10-07T05:55:36.506Z,7.66
2017-10-07T05:56:36.505Z,7.64
2017-10-07T05:57:36.505Z,7.77
2017-10-07T05:58:36.503Z,7.61
2017-10-07T05:59:36.501Z,7.69
2017-10-07T06:00:36.502Z,7.74
2017-10-07T06:01:36.499Z,7.61
2017-10-07T06:02:36.500Z,7.70
2017-10-07T06:03:36.495Z,7.69
2017-10-07T06:04:36.496Z,7.70
2017-10-07T06:05:36.494Z,7.64
2017-10-07T06:06:36.493Z,7.62
2017-10-07T06:07:36.491Z,7.77
2017-10-07T06:08:36.490Z,7.83
2017-10-07T06:09:36.488Z,7.83
2017-10-07T06:10:36.489Z,7.91
2017-10-07T06:11:36.486Z,7.90
2017-10-07T06:12:36.485Z,7.81
2017-10-07T06:13:36.483Z,7.81
2017-10-07T06:14:36.483Z,7.81
2017-10-07T06:15:36.480Z,7.85
2017-10-07T06:16:36.483Z,7.96
2017-10-07T06:17:36.475Z,7.93
2017-10-07T06:18:36.482Z,7.95
2017-10-07T06:19:36.474Z,7.95
2017-10-07T06:20:36.474Z,7.98
2017-10-07T06:21:36.474Z,7.88
2017-10-07T06:22:36.471Z,7.87
2017-10-07T06:23:36.469Z,7.75
2017-10-07T06:24:36.470Z,7.75
2017-10-07T06:25:36.469Z,7.78
2017-10-07T06:26:36.469Z,7.67
2017-10-07T06:27:36.465Z,7.80
2017-10-07T06:28:36.464Z,7.83
2017-10-07T06:29:36.463Z,7.96
2017-10-07T06:30:36.461Z,7.88
2017-10-07T06:31:36.460Z,7.96
2017-10-07T06:32:36.460Z,8.09
2017-10-07T06:33:36.459Z,8.05
2017-10-07T06:34:36.458Z,8.16
2017-10-07T06:35:36.456Z,8.06
2017-10-07T06:36:36.456Z,8.11
2017-10-07T06:37:36.455Z,8.06
2017-10-07T06:38:36.454Z,8.09
2017-10-07T06:39:36.453Z,8.17
2017-10-07T06:40:36.450Z,8.06
2017-10-07T06:41:36.450Z,8.13
2017-10-07T06:42:36.450Z,8.11
2017-10-07T06:43:36.448Z,8.18
2017-10-07T06:44:36.452Z,8.20
2017-10-07T06:45:36.446Z,8.35
2017-10-07T06:46:36.446Z,8.36
2017-10-07T06:47:36.445Z,8.42
2017-10-07T06:48:36.442Z,8.78
2017-10-07T06:49:36.443Z,9.67
2017-10-07T06:50:36.442Z,11.07
2017-10-07T06:51:36.442Z,12.51
2017-10-07T06:52:36.441Z,13.82
2017-10-07T06:53:36.442Z,14.81
2017-10-07T06:54:36.445Z,15.63
2017-10-07T06:55:36.443Z,14.44
2017-10-07T06:56:36.446Z,14.03
2017-10-07T06:57:36.447Z,13.47
2017-10-07T06:58:36.450Z,12.88
2017-10-07T06:59:36.454Z,12.32
2017-10-07T07:00:36.452Z,11.70
2017-10-07T07:01:36.456Z,11.44
2017-10-07T07:02:36.456Z,11.38
2017-10-07T07:03:36.458Z,11.27
2017-10-07T07:04:36.460Z,11.13
2017-10-07T07:05:36.464Z,11.08
2017-10-07T07:06:36.464Z,10.97
2017-10-07T07:07:36.466Z,10.71
2017-10-07T07:08:36.472Z,10.69
2017-10-07T07:09:36.472Z,10.62
2017-10-07T07:10:36.472Z,10.58
2017-10-07T07:11:36.472Z,10.53
2017-10-07T07:12:36.474Z,10.41
2017-10-07T07:13:36.478Z,10.33
2017-10-07T07:14:36.476Z,10.21
2017-10-07T07:15:36.495Z,10.17
2017-10-07T07:16:36.479Z,10.09
2017-10-07T07:17:36.480Z,9.97
2017-10-07T07:18:36.482Z,9.82
2017-10-07T07:19:36.482Z,9.82
2017-10-07T07:20:36.484Z,9.70
2017-10-07T07:21:36.525Z,9.64
2017-10-07T07:22:36.486Z,9.58
2017-10-07T07:23:36.487Z,9.70
2017-10-07T07:24:36.530Z,9.54
2017-10-07T07:25:36.489Z,9.54
2017-10-07T07:26:36.537Z,9.51
2017-10-07T07:27:36.489Z,9.52
2017-10-07T07:28:36.490Z,9.49
2017-10-07T07:29:36.491Z,9.51
2017-10-07T07:30:36.493Z,9.45
2017-10-07T07:31:36.502Z,9.34
2017-10-07T07:32:36.523Z,9.29
2017-10-07T07:33:36.521Z,9.34
2017-10-07T07:34:36.495Z,9.21
2017-10-07T07:35:36.529Z,9.24
2017-10-07T07:36:36.494Z,9.24
2017-10-07T07:37:36.571Z,9.30
2017-10-07T07:38:36.497Z,9.12
2017-10-07T07:39:36.495Z,9.09
2017-10-07T07:40:36.519Z,9.21
2017-10-07T07:41:36.496Z,9.26
2017-10-07T07:42:36.498Z,9.29
2017-10-07T07:43:36.498Z,9.24
2017-10-07T07:44:36.513Z,9.26
2017-10-07T07:45:36.497Z,9.29
2017-10-07T07:46:36.497Z,9.31
2017-10-07T07:47:36.506Z,9.39
2017-10-07T07:48:36.498Z,9.40
2017-10-07T07:49:36.498Z,9.40
2017-10-07T07:50:36.500Z,9.27
2017-10-07T07:51:36.498Z,9.27
2017-10-07T07:52:36.499Z,9.27
2017-10-07T07:53:36.499Z,9.19
2017-10-07T07:54:36.536Z,9.21
2017-10-07T07:55:36.534Z,9.27
2017-10-07T07:56:36.501Z,9.31
2017-10-07T07:57:36.518Z,9.27
2017-10-07T07:58:36.500Z,9.24
2017-10-07T07:59:36.500Z,9.29
2017-10-07T08:00:36.524Z,9.37
2017-10-07T08:01:36.500Z,9.36
2017-10-07T08:02:36.577Z,9.37
2017-10-07T08:03:36.524Z,9.39
2017-10-07T08:04:36.501Z,9.37
2017-10-07T08:05:36.502Z,9.51
2017-10-07T08:06:36.505Z,9.49
2017-10-07T08:07:36.501Z,9.54
2017-10-07T08:08:36.524Z,9.55
2017-10-07T08:09:36.502Z,9.51
2017-10-07T08:10:36.568Z,9.58
2017-10-07T08:11:36.546Z,9.69
2017-10-07T08:12:36.552Z,9.64
2017-10-07T08:13:36.509Z,9.66
2017-10-07T08:14:36.556Z,9.69
2017-10-07T08:15:36.502Z,9.73
2017-10-07T08:16:36.501Z,9.72
2017-10-07T08:17:36.503Z,9.85
2017-10-07T08:18:36.503Z,9.81
2017-10-07T08:19:36.502Z,9.81
2017-10-07T08:20:36.515Z,9.84
2017-10-07T08:21:36.503Z,9.99
2017-10-07T08:22:36.826Z,10.06
2017-10-07T08:23:36.504Z,10.02
2017-10-07T08:24:36.503Z,10.06
2017-10-07T08:25:36.520Z,10.07
2017-10-07T08:26:36.503Z,10.15
2017-10-07T08:27:36.504Z,10.10
2017-10-07T08:28:36.504Z,10.12
2017-10-07T08:29:36.515Z,10.09
2017-10-07T08:30:36.505Z,10.09
2017-10-07T08:31:36.506Z,10.09
2017-10-07T08:32:36.507Z,10.09
2017-10-07T08:33:36.507Z,10.12
2017-10-07T08:34:36.507Z,10.12
2017-10-07T08:35:36.507Z,10.09
2017-10-07T08:36:36.508Z,10.21
2017-10-07T08:37:36.507Z,10.39
2017-10-07T08:38:36.509Z,10.39
2017-10-07T08:39:36.508Z,10.51
2017-10-07T08:40:36.508Z,10.62
2017-10-07T08:41:36.509Z,10.67
2017-10-07T08:42:36.510Z,10.69
2017-10-07T08:43:36.510Z,10.76
2017-10-07T08:44:36.512Z,10.86
2017-10-07T08:45:36.520Z,10.98
2017-10-07T08:46:36.514Z,10.94
2017-10-07T08:47:36.513Z,10.90
2017-10-07T08:48:36.515Z,10.94
2017-10-07T08:49:36.515Z,11.10
2017-10-07T08:50:36.516Z,11.13
2017-10-07T08:51:36.519Z,11.26
2017-10-07T08:52:36.517Z,11.38
2017-10-07T08:53:36.519Z,11.38
2017-10-07T08:54:36.520Z,11.40
2017-10-07T08:55:36.519Z,11.43
2017-10-07T08:56:36.522Z,11.44
2017-10-07T08:57:36.522Z,11.45
2017-10-07T08:58:36.524Z,11.56
2017-10-07T08:59:36.524Z,11.52
2017-10-07T09:00:36.527Z,11.59
2017-10-07T09:01:36.528Z,11.55
2017-10-07T09:02:36.528Z,11.59
2017-10-07T09:03:36.530Z,11.59
2017-10-07T09:04:36.531Z,11.56
2017-10-07T09:05:36.541Z,11.60
2017-10-07T09:06:36.535Z,11.60
2017-10-07T09:07:36.535Z,11.68
2017-10-07T09:08:36.536Z,11.81
2017-10-07T09:09:36.539Z,11.91
2017-10-07T09:10:36.541Z,12.08
2017-10-07T09:11:36.541Z,11.97
2017-10-07T09:12:36.543Z,11.91
2017-10-07T09:13:36.545Z,11.86
2017-10-07T09:14:36.547Z,11.97
2017-10-07T09:15:36.550Z,11.97
2017-10-07T09:16:36.551Z,11.96
2017-10-07T09:17:36.552Z,12.00
2017-10-07T09:18:36.555Z,12.18
2017-10-07T09:19:36.556Z,12.39
2017-10-07T09:20:36.558Z,12.83
2017-10-07T09:21:36.559Z,13.01
2017-10-07T09:22:36.562Z,12.94
2017-10-07T09:23:36.563Z,12.99
2017-10-07T09:24:36.568Z,13.09
2017-10-07T09:25:36.568Z,13.09
2017-10-07T09:26:36.571Z,13.19
2017-10-07T09:27:36.573Z,13.02
2017-10-07T09:28:36.575Z,12.87
2017-10-07T09:29:36.583Z,12.66
2017-10-07T09:30:36.582Z,12.57
2017-10-07T09:31:36.582Z,12.45
2017-10-07T09:32:36.586Z,12.36
2017-10-07T09:33:36.589Z,12.30
2017-10-07T09:34:36.589Z,12.21
2017-10-07T09:35:36.592Z,12.15
2017-10-07T09:36:36.595Z,12.23
2017-10-07T09:37:36.596Z,12.28
2017-10-07T09:38:36.627Z,12.32
2017-10-07T09:39:36.600Z,12.32
2017-10-07T09:40:36.605Z,12.51
2017-10-07T09:41:36.606Z,12.55
2017-10-07T09:42:36.609Z,12.47
2017-10-07T09:43:36.613Z,12.36
2017-10-07T09:44:36.612Z,12.62
2017-10-07T09:45:36.616Z,12.47
2017-10-07T09:46:36.619Z,12.83
2017-10-07T09:47:36.619Z,12.75
2017-10-07T09:48:36.624Z,12.94
2017-10-07T09:49:36.625Z,13.31
2017-10-07T09:50:36.632Z,13.36
2017-10-07T09:51:36.629Z,13.30
2017-10-07T09:52:36.632Z,12.94
2017-10-07T09:53:36.635Z,12.65
2017-10-07T09:54:36.639Z,12.37
2017-10-07T09:55:36.641Z,12.20
2017-10-07T09:56:36.646Z,11.88
2017-10-07T09:57:36.646Z,11.71
2017-10-07T09:58:36.650Z,11.99
2017-10-07T09:59:36.657Z,12.32
2017-10-07T10:00:36.656Z,12.14
2017-10-07T10:01:36.659Z,12.53
2017-10-07T10:02:36.661Z,12.78
2017-10-07T10:03:36.663Z,13.05
2017-10-07T10:04:36.667Z,12.93
2017-10-07T10:05:36.670Z,12.88
2017-10-07T10:06:36.673Z,12.88
2017-10-07T10:07:36.675Z,12.88
2017-10-07T10:08:36.676Z,12.78
2017-10-07T10:09:36.679Z,12.65
2017-10-07T10:10:36.682Z,12.78
2017-10-07T10:11:36.685Z,13.21
2017-10-07T10:12:36.687Z,13.24
2017-10-07T10:13:36.690Z,13.79
2017-10-07T10:14:36.694Z,13.95
2017-10-07T10:15:36.697Z,14.25
2017-10-07T10:16:36.699Z,14.62
2017-10-07T10:17:36.703Z,15.33
2017-10-07T10:18:36.715Z,15.92
2017-10-07T10:19:36.709Z,16.59
2017-10-07T10:20:36.713Z,16.97
2017-10-07T10:21:36.718Z,17.19
2017-10-07T10:22:36.722Z,17.76
2017-10-07T10:23:36.727Z,17.98
2017-10-07T10:24:36.731Z,18.11
2017-10-07T10:25:36.736Z,18.18
2017-10-07T10:26:36.752Z,17.98
2017-10-07T10:27:36.746Z,17.23
2017-10-07T10:28:36.758Z,16.89
2017-10-07T10:29:36.758Z,16.58
2017-10-07T10:30:36.765Z,16.37
2017-10-07T10:31:36.770Z,16.00
2017-10-07T10:32:36.778Z,15.78
2017-10-07T10:33:36.782Z,15.62
2017-10-07T10:34:36.790Z,16.41
2017-10-07T10:35:36.795Z,16.91
2017-10-07T10:36:36.826Z,17.16
2017-10-07T10:37:36.807Z,17.50
2017-10-07T10:38:36.814Z,17.65
2017-10-07T10:39:36.820Z,17.95
2017-10-07T10:40:36.826Z,18.16
2017-10-07T10:41:36.833Z,17.76
2017-10-07T10:42:36.840Z,17.49
2017-10-07T10:43:36.847Z,17.35
2017-10-07T10:44:36.855Z,17.42
2017-10-07T10:45:36.860Z,17.41
2017-10-07T10:46:36.869Z,17.10
2017-10-07T10:47:36.874Z,16.97
2017-10-07T10:48:36.883Z,16.86
2017-10-07T10:49:36.892Z,16.84
2017-10-07T10:50:36.900Z,17.05
2017-10-07T10:51:36.905Z,17.49
2017-10-07T10:52:36.913Z,17.34
2017-10-07T10:53:36.922Z,17.17
2017-10-07T10:54:36.930Z,17.46
2017-10-07T10:55:36.938Z,17.79
2017-10-07T10:56:36.944Z,17.76
2017-10-07T10:57:36.952Z,17.65
2017-10-07T10:58:36.961Z,17.39
2017-10-07T10:59:36.967Z,17.07
2017-10-07T11:00:36.976Z,16.66
2017-10-07T11:01:36.983Z,16.37
2017-10-07T11:02:36.991Z,15.96
2017-10-07T11:03:36.998Z,15.84
2017-10-07T11:04:37.005Z,15.59
2017-10-07T11:05:37.015Z,15.23
2017-10-07T11:06:37.020Z,14.85
2017-10-07T11:07:37.025Z,14.36
2017-10-07T11:08:37.034Z,14.30
2017-10-07T11:09:37.040Z,14.03
2017-10-07T11:10:37.049Z,13.76
2017-10-07T11:11:37.052Z,13.65
2017-10-07T11:12:37.058Z,13.40
2017-10-07T11:13:37.065Z,13.37
2017-10-07T11:14:37.072Z,13.28
2017-10-07T11:15:37.076Z,13.91
2017-10-07T11:16:37.081Z,14.12
2017-10-07T11:17:37.087Z,14.34
2017-10-07T11:18:37.092Z,14.43
2017-10-07T11:19:37.098Z,14.40
2017-10-07T11:20:37.103Z,14.78
2017-10-07T11:21:37.107Z,14.96
2017-10-07T11:22:37.114Z,15.17
2017-10-07T11:23:37.118Z,15.29
2017-10-07T11:24:37.124Z,15.27
2017-10-07T11:25:37.130Z,15.30
2017-10-07T11:26:37.137Z,15.50
2017-10-07T11:27:37.140Z,15.32
2017-10-07T11:28:37.145Z,15.45
2017-10-07T11:29:37.150Z,15.66
2017-10-07T11:30:37.159Z,15.63
2017-10-07T11:31:37.163Z,15.72
2017-10-07T11:32:37.171Z,15.84
2017-10-07T11:33:37.174Z,15.96
2017-10-07T11:34:37.180Z,16.21
2017-10-07T11:35:37.190Z,16.41
2017-10-07T11:36:37.192Z,16.54
2017-10-07T11:37:37.199Z,16.59
2017-10-07T11:38:37.204Z,16.64
2017-10-07T11:39:37.210Z,16.54
2017-10-07T11:40:37.217Z,16.54
2017-10-07T11:41:37.222Z,16.58
2017-10-07T11:42:37.229Z,16.54
2017-10-07T11:43:37.234Z,16.46
2017-10-07T11:44:37.241Z,16.61
2017-10-07T11:45:37.247Z,16.39
2017-10-07T11:46:37.255Z,16.54
2017-10-07T11:47:37.260Z,16.61
2017-10-07T11:48:37.267Z,16.62
2017-10-07T11:49:37.280Z,16.68
2017-10-07T11:50:37.279Z,16.84
2017-10-07T11:51:37.287Z,16.80
2017-10-07T11:52:37.292Z,16.82
2017-10-07T11:53:37.301Z,16.86
2017-10-07T11:54:37.307Z,16.76
2017-10-07T11:55:37.311Z,16.94
2017-10-07T11:56:37.323Z,17.04
2017-10-07T11:57:37.326Z,17.09
2017-10-07T11:58:37.334Z,17.22
2017-10-07T11:59:37.341Z,17.24
2017-10-07T12:00:37.347Z,17.20
2017-10-07T12:01:37.361Z,17.34
2017-10-07T12:02:37.362Z,17.39
2017-10-07T12:03:37.369Z,17.50
2017-10-07T12:04:37.377Z,17.39
2017-10-07T12:05:37.385Z,17.53
2017-10-07T12:06:37.392Z,17.41
2017-10-07T12:07:37.399Z,17.46
2017-10-07T12:08:37.407Z,17.34
2017-10-07T12:09:37.415Z,17.22
2017-10-07T12:10:37.422Z,17.04
2017-10-07T12:11:37.430Z,17.01
2017-10-07T12:12:37.437Z,17.24
2017-10-07T12:13:37.446Z,17.39
2017-10-07T12:14:37.454Z,17.50
2017-10-07T12:15:37.460Z,17.75
2017-10-07T12:16:37.469Z,17.68
2017-10-07T12:17:37.477Z,17.44
2017-10-07T12:18:37.485Z,17.34
2017-10-07T12:19:37.492Z,17.53
2017-10-07T12:20:37.500Z,17.73
2017-10-07T12:21:37.513Z,17.78
2017-10-07T12:22:37.518Z,17.76
2017-10-07T12:23:37.527Z,17.66
2017-10-07T12:24:37.533Z,17.71
2017-10-07T12:25:37.541Z,17.75
2017-10-07T12:26:37.550Z,18.00
2017-10-07T12:27:37.558Z,18.27
2017-10-07T12:28:37.567Z,18.46
2017-10-07T12:29:37.575Z,18.34
2017-10-07T12:30:37.584Z,18.58
2017-10-07T12:31:37.591Z,18.60
2017-10-07T12:32:37.600Z,18.42
2017-10-07T12:33:37.608Z,18.49
2017-10-07T12:34:37.619Z,18.51
2017-10-07T12:35:37.625Z,18.52
2017-10-07T12:36:37.636Z,18.51
2017-10-07T12:37:37.644Z,18.45
2017-10-07T12:38:37.653Z,18.51
2017-10-07T12:39:37.662Z,18.61
2017-10-07T12:40:37.671Z,18.51
2017-10-07T12:41:37.681Z,18.27
2017-10-07T12:42:37.690Z,18.26
2017-10-07T12:43:37.697Z,18.15
2017-10-07T12:44:37.708Z,18.02
2017-10-07T12:45:37.717Z,18.03
2017-10-07T12:46:37.726Z,17.93
2017-10-07T12:47:37.736Z,17.94
2017-10-07T12:48:37.744Z,17.95
2017-10-07T12:49:37.753Z,17.94
2017-10-07T12:50:37.763Z,17.94
2017-10-07T12:51:37.770Z,18.09
2017-10-07T12:52:37.781Z,18.12
2017-10-07T12:53:37.788Z,17.98
2017-10-07T12:54:37.799Z,18.05
2017-10-07T12:55:37.809Z,17.91
2017-10-07T12:56:37.816Z,17.75
2017-10-07T12:57:37.826Z,17.39
2017-10-07T12:58:37.838Z,17.22
2017-10-07T12:59:37.842Z,16.92
2017-10-07T13:00:37.851Z,16.59
2017-10-07T13:01:37.860Z,16.59
2017-10-07T13:02:37.870Z,16.58
2017-10-07T13:03:37.875Z,16.50
2017-10-07T13:04:37.885Z,16.61
2017-10-07T13:05:37.894Z,16.62
2017-10-07T13:06:37.901Z,16.62
2017-10-07T13:07:37.908Z,16.66
2017-10-07T13:08:37.916Z,16.69